createdAt,value
2023-04-10T00:00:36.649Z,4.86
2023-04-10T00:03:04.535Z,4.95
2023-04-10T00:05:31.741Z,4.95
2023-04-10T00:07:58.660Z,4.86
2023-04-10T00:10:26.775Z,4.87
2023-04-10T00:12:54.272Z,4.86
2023-04-10T00:15:21.580Z,4.82
2023-04-10T00:17:50.936Z,4.97
2023-04-10T00:20:20.242Z,4.93
2023-04-10T00:22:47.077Z,4.97
2023-04-10T00:25:13.967Z,4.85
2023-04-10T00:27:40.994Z,4.90
2023-04-10T00:30:08.628Z,4.96
2023-04-10T00:32:35.623Z,5.02
2023-04-10T00:35:03.016Z,5.03
2023-04-10T00:37:29.873Z,5.09
2023-04-10T00:39:56.705Z,5.35
2023-04-10T00:42:23.755Z,5.33
2023-04-10T00:44:51.100Z,5.19
2023-04-10T00:47:18.103Z,5.09
2023-04-10T00:49:45.581Z,5.18
2023-04-10T00:52:13.132Z,5.37
2023-04-10T00:54:41.088Z,5.27
2023-04-10T00:57:08.276Z,5.24
2023-04-10T00:59:35.962Z,5.19
2023-04-10T01:02:03.648Z,5.23
2023-04-10T01:04:32.143Z,5.27
2023-04-10T01:07:07.482Z,5.40
2023-04-10T01:09:39.815Z,5.31
2023-04-10T01:12:13.107Z,5.30
2023-04-10T01:15:13.237Z,5.24
2023-04-10T01:17:58.683Z,5.31
2023-04-10T01:20:30.856Z,5.35
2023-04-10T01:22:57.796Z,5.31
2023-04-10T01:25:49.590Z,5.25
2023-04-10T01:28:19.182Z,5.31
2023-04-10T01:30:56.755Z,5.42
2023-04-10T01:33:30.745Z,5.43
2023-04-10T01:36:02.399Z,5.15
2023-04-10T01:38:31.465Z,5.55
2023-04-10T01:41:00.680Z,5.57
2023-04-10T01:43:29.644Z,5.58
2023-04-10T01:45:58.764Z,5.62
2023-04-10T01:48:26.079Z,5.58
2023-04-10T01:50:54.862Z,5.59
2023-04-10T01:53:23.254Z,5.53
2023-04-10T01:55:51.553Z,5.54
2023-04-10T01:58:19.044Z,5.48
2023-04-10T02:00:46.249Z,5.47
2023-04-10T02:03:13.664Z,5.51
2023-04-10T02:05:57.096Z,5.44
2023-04-10T02:08:34.948Z,5.39
2023-04-10T02:11:13.367Z,5.47
2023-04-10T02:13:41.785Z,5.48
2023-04-10T02:16:09.891Z,5.39
2023-04-10T02:18:38.925Z,5.49
2023-04-10T02:21:07.751Z,5.38
2023-04-10T02:23:35.899Z,5.40
2023-04-10T02:26:09.765Z,5.39
2023-04-10T02:28:40.539Z,5.35
2023-04-10T02:31:08.274Z,5.36
2023-04-10T02:33:35.233Z,5.43
2023-04-10T02:36:02.682Z,5.44
2023-04-10T02:38:29.785Z,5.50
2023-04-10T02:40:56.873Z,5.51
2023-04-10T02:43:23.867Z,5.43
2023-04-10T02:45:51.585Z,5.45
2023-04-10T02:48:18.560Z,5.47
2023-04-10T02:50:46.798Z,5.35
2023-04-10T02:53:16.312Z,5.27
2023-04-10T02:55:43.437Z,5.29
2023-04-10T02:58:10.349Z,5.28
2023-04-10T03:00:37.602Z,5.22
2023-04-10T03:03:04.773Z,5.15
2023-04-10T03:05:31.893Z,5.21
2023-04-10T03:07:58.995Z,5.18
2023-04-10T03:10:26.043Z,5.12
2023-04-10T03:12:53.129Z,5.19
2023-04-10T03:15:19.873Z,5.16
2023-04-10T03:17:46.750Z,5.08
2023-04-10T03:20:14.182Z,5.14
2023-04-10T03:22:41.380Z,5.13
2023-04-10T03:25:08.687Z,5.17
2023-04-10T03:27:36.035Z,5.22
2023-04-10T03:30:03.291Z,5.24
2023-04-10T03:32:31.379Z,5.30
2023-04-10T03:34:59.578Z,5.26
2023-04-10T03:37:27.888Z,5.33
2023-04-10T03:39:54.856Z,5.28
2023-04-10T03:42:21.746Z,5.29
2023-04-10T03:44:48.688Z,5.29
2023-04-10T03:47:16.013Z,5.22
2023-04-10T03:49:45.941Z,5.15
2023-04-10T03:52:12.971Z,5.16
2023-04-10T03:54:40.098Z,5.11
2023-04-10T03:57:06.928Z,5.13
2023-04-10T03:59:38.609Z,5.10
2023-04-10T04:02:07.718Z,5.09
2023-04-10T04:04:34.880Z,4.97
2023-04-10T04:07:02.036Z,4.93
2023-04-10T04:09:29.032Z,4.91
2023-04-10T04:11:56.533Z,4.87
2023-04-10T04:14:24.474Z,4.82
2023-04-10T04:16:51.554Z,4.64
2023-04-10T04:19:18.557Z,4.89
2023-04-10T04:21:45.809Z,4.86
2023-04-10T04:24:12.888Z,4.72
2023-04-10T04:26:39.814Z,4.69
2023-04-10T04:29:06.775Z,4.63
2023-04-10T04:31:33.761Z,4.66
2023-04-10T04:34:00.809Z,4.61
2023-04-10T04:36:28.562Z,4.67
2023-04-10T04:38:55.582Z,4.66
2023-04-10T04:41:22.666Z,4.62
2023-04-10T04:43:49.746Z,4.56
2023-04-10T04:46:16.613Z,4.44
2023-04-10T04:48:43.465Z,4.65
2023-04-10T04:51:10.468Z,4.75
2023-04-10T04:53:37.558Z,4.83
2023-04-10T04:56:04.618Z,4.97
2023-04-10T04:58:31.544Z,5.03
2023-04-10T05:00:58.554Z,5.11
2023-04-10T05:03:25.783Z,5.11
2023-04-10T05:05:52.773Z,5.35
2023-04-10T05:08:19.719Z,5.38
2023-04-10T05:10:48.888Z,5.53
2023-04-10T05:13:17.631Z,5.64
2023-04-10T05:15:45.219Z,5.82
2023-04-10T05:18:13.966Z,5.98
2023-04-10T05:20:41.340Z,6.30
2023-04-10T05:23:08.379Z,6.37
2023-04-10T05:25:35.778Z,6.56
2023-04-10T05:28:02.633Z,6.72
2023-04-10T05:30:29.736Z,6.83
2023-04-10T05:32:58.025Z,7.22
2023-04-10T05:35:25.114Z,7.26
2023-04-10T05:37:52.215Z,7.43
2023-04-10T05:40:19.049Z,7.36
2023-04-10T05:42:46.686Z,7.09
2023-04-10T05:45:15.327Z,7.26
2023-04-10T05:47:42.522Z,7.43
2023-04-10T05:50:09.962Z,7.50
2023-04-10T05:52:36.850Z,7.45
2023-04-10T05:55:04.281Z,7.87
2023-04-10T05:57:32.322Z,8.17
2023-04-10T05:59:59.533Z,8.37
2023-04-10T06:02:27.818Z,8.45
2023-04-10T06:04:55.166Z,8.53
2023-04-10T06:07:22.247Z,8.56
2023-04-10T06:09:49.318Z,8.68
2023-04-10T06:12:16.388Z,8.90
2023-04-10T06:14:43.373Z,9.23
2023-04-10T06:17:10.725Z,9.52
2023-04-10T06:19:39.893Z,9.41
2023-04-10T06:22:06.842Z,9.85
2023-04-10T06:24:33.884Z,10.06
2023-04-10T06:27:02.390Z,10.68
2023-04-10T06:29:29.210Z,10.84
2023-04-10T06:31:56.153Z,11.74
2023-04-10T06:34:23.084Z,11.98
2023-04-10T06:36:50.132Z,12.43
2023-04-10T06:39:17.799Z,12.60
2023-04-10T06:41:44.693Z,12.70
2023-04-10T06:44:11.700Z,13.08
2023-04-10T06:46:38.842Z,12.67
2023-04-10T06:49:06.442Z,12.57
2023-04-10T06:51:33.349Z,13.07
2023-04-10T06:54:00.127Z,13.30
2023-04-10T06:56:27.266Z,13.78
2023-04-10T06:58:54.350Z,14.36
2023-04-10T07:01:21.661Z,14.60
2023-04-10T07:03:48.625Z,14.01
2023-04-10T07:06:15.726Z,14.56
2023-04-10T07:08:42.581Z,15.64
2023-04-10T07:11:09.877Z,14.91
2023-04-10T07:13:39.161Z,15.48
2023-04-10T07:16:08.333Z,15.28
2023-04-10T07:18:39.479Z,15.16
2023-04-10T07:21:13.461Z,16.12
2023-04-10T07:23:41.125Z,17.49
2023-04-10T07:26:08.138Z,18.57
2023-04-10T07:28:35.153Z,20.03
2023-04-10T07:31:04.985Z,18.19
2023-04-10T07:33:32.072Z,18.09
2023-04-10T07:35:58.730Z,17.19
2023-04-10T07:38:25.888Z,17.31
2023-04-10T07:40:59.581Z,19.05
2023-04-10T07:43:26.701Z,18.32
2023-04-10T07:45:53.652Z,19.55
2023-04-10T07:48:20.880Z,18.95
2023-04-10T07:50:48.055Z,18.59
2023-04-10T07:53:14.905Z,18.61
2023-04-10T07:55:46.481Z,17.92
2023-04-10T07:58:13.405Z,18.99
2023-04-10T08:00:40.288Z,20.13
2023-04-10T08:03:07.605Z,21.53
2023-04-10T08:05:34.783Z,20.76
2023-04-10T08:08:01.598Z,19.90
2023-04-10T08:10:28.469Z,20.93
2023-04-10T08:12:55.299Z,21.82
2023-04-10T08:15:22.264Z,19.67
2023-04-10T08:17:50.032Z,19.04
2023-04-10T08:20:17.685Z,18.94
2023-04-10T08:22:44.567Z,18.29
2023-04-10T08:25:11.270Z,18.85
2023-04-10T08:27:38.339Z,19.52
2023-04-10T08:30:06.052Z,20.19
2023-04-10T08:32:33.090Z,20.55
2023-04-10T08:34:59.987Z,23.08
2023-04-10T08:37:27.188Z,23.61
2023-04-10T08:39:54.445Z,23.92
2023-04-10T08:42:22.462Z,22.65
2023-04-10T08:44:50.568Z,24.71
2023-04-10T08:47:21.539Z,26.70
2023-04-10T08:49:57.487Z,26.24
2023-04-10T08:52:29.754Z,25.92
2023-04-10T08:54:58.797Z,26.35
2023-04-10T08:57:27.449Z,29.73
2023-04-10T08:59:54.516Z,30.75
2023-04-10T09:02:22.387Z,32.65
2023-04-10T09:04:51.999Z,32.27
2023-04-10T09:07:19.097Z,33.14
2023-04-10T09:09:46.077Z,31.16
2023-04-10T09:12:14.614Z,31.67
2023-04-10T09:14:44.819Z,32.15
2023-04-10T09:17:22.884Z,32.64
2023-04-10T09:19:54.970Z,34.03
2023-04-10T09:22:36.532Z,34.19
2023-04-10T09:25:04.767Z,31.18
2023-04-10T09:27:35.424Z,30.45
2023-04-10T09:30:04.015Z,30.05
2023-04-10T09:32:39.604Z,31.07
2023-04-10T09:35:08.768Z,32.59
2023-04-10T09:37:36.683Z,32.59
2023-04-10T09:40:04.566Z,31.39
2023-04-10T09:42:37.532Z,27.69
2023-04-10T09:45:06.175Z,26.98
2023-04-10T09:47:33.503Z,28.31
2023-04-10T09:50:01.244Z,28.22
2023-04-10T09:52:31.960Z,28.29
2023-04-10T09:55:10.020Z,28.28
2023-04-10T09:57:36.993Z,29.67
2023-04-10T10:00:07.207Z,28.91
2023-04-10T10:02:42.599Z,30.86
2023-04-10T10:05:11.732Z,31.03
2023-04-10T10:07:39.489Z,28.52
2023-04-10T10:10:09.323Z,29.64
2023-04-10T10:12:52.348Z,30.51
2023-04-10T10:15:52.228Z,33.38
2023-04-10T10:18:42.262Z,32.37
2023-04-10T10:21:10.534Z,34.76
2023-04-10T10:23:38.883Z,31.87
2023-04-10T10:26:09.053Z,26.53
2023-04-10T10:28:37.543Z,24.78
2023-04-10T10:31:04.865Z,23.80
2023-04-10T10:33:36.194Z,24.32
2023-04-10T10:36:04.920Z,24.47
2023-04-10T10:38:33.178Z,22.26
2023-04-10T10:41:16.400Z,23.17
2023-04-10T10:43:52.434Z,25.66
2023-04-10T10:46:36.083Z,27.06
2023-04-10T10:49:03.087Z,26.44
2023-04-10T10:51:49.763Z,28.90
2023-04-10T10:54:33.942Z,29.22
2023-04-10T10:57:02.334Z,29.90
2023-04-10T10:59:44.317Z,30.21
2023-04-10T11:02:19.052Z,30.62
2023-04-10T11:04:47.959Z,29.53
2023-04-10T11:07:15.952Z,31.13
2023-04-10T11:09:50.734Z,31.70
2023-04-10T11:12:23.778Z,30.94
2023-04-10T11:15:01.510Z,30.69
2023-04-10T11:17:51.447Z,31.03
2023-04-10T11:20:21.087Z,31.45
2023-04-10T11:23:13.288Z,30.34
2023-04-10T11:25:53.723Z,30.25
2023-04-10T11:28:33.196Z,30.20
2023-04-10T11:31:22.676Z,26.86
2023-04-10T11:34:01.177Z,26.79
2023-04-10T11:36:29.116Z,27.34
2023-04-10T11:39:09.108Z,28.75
2023-04-10T11:41:54.775Z,27.23
2023-04-10T11:44:35.510Z,29.15
2023-04-10T11:47:02.639Z,29.50
2023-04-10T11:49:34.645Z,28.17
2023-04-10T11:52:01.871Z,28.36
2023-04-10T11:54:29.793Z,28.14
2023-04-10T11:57:03.192Z,26.75
2023-04-10T11:59:31.551Z,24.48
2023-04-10T12:02:14.927Z,23.66
2023-04-10T12:04:43.356Z,23.85
2023-04-10T12:07:11.198Z,24.23
2023-04-10T12:09:38.229Z,23.20
2023-04-10T12:12:06.861Z,22.26
2023-04-10T12:14:36.044Z,22.23
2023-04-10T12:17:03.974Z,22.66
2023-04-10T12:19:31.677Z,21.87
2023-04-10T12:21:59.849Z,22.05
2023-04-10T12:24:45.163Z,22.18
2023-04-10T12:27:27.899Z,20.95
2023-04-10T12:29:57.076Z,20.96
2023-04-10T12:32:25.910Z,20.71
2023-04-10T12:34:53.838Z,20.51
2023-04-10T12:37:21.310Z,21.07
2023-04-10T12:39:49.045Z,19.85
2023-04-10T12:42:21.144Z,20.14
2023-04-10T12:44:55.606Z,20.61
2023-04-10T12:47:24.152Z,20.28
2023-04-10T12:50:13.698Z,20.28
2023-04-10T12:52:43.414Z,20.85
2023-04-10T12:55:21.518Z,20.46
2023-04-10T12:57:49.010Z,20.19
2023-04-10T13:00:20.167Z,20.31
2023-04-10T13:02:48.947Z,20.20
2023-04-10T13:05:16.292Z,19.96
2023-04-10T13:07:43.283Z,19.72
2023-04-10T13:10:10.714Z,19.92
2023-04-10T13:12:39.265Z,19.73
2023-04-10T13:15:07.997Z,19.65
2023-04-10T13:17:35.485Z,19.98
2023-04-10T13:20:02.860Z,20.03
2023-04-10T13:22:29.850Z,19.94
2023-04-10T13:24:56.801Z,19.64
2023-04-10T13:27:23.712Z,19.61
2023-04-10T13:29:50.718Z,19.27
2023-04-10T13:32:17.715Z,19.16
2023-04-10T13:34:44.632Z,19.61
2023-04-10T13:37:15.268Z,19.56
2023-04-10T13:39:43.568Z,19.19
2023-04-10T13:42:11.400Z,19.43
2023-04-10T13:44:38.340Z,19.47
2023-04-10T13:47:05.306Z,19.44
2023-04-10T13:49:32.257Z,19.39
2023-04-10T13:51:59.495Z,19.54
2023-04-10T13:54:26.866Z,20.08
2023-04-10T13:56:54.962Z,20.65
2023-04-10T13:59:22.465Z,20.29
2023-04-10T14:01:55.100Z,19.41
2023-04-10T14:04:22.220Z,19.50
2023-04-10T14:06:51.702Z,19.37
2023-04-10T14:09:19.105Z,19.22
2023-04-10T14:11:46.002Z,19.19
2023-04-10T14:14:12.959Z,18.74
2023-04-10T14:16:39.993Z,18.92
2023-04-10T14:19:08.009Z,19.44
2023-04-10T14:21:35.382Z,19.35
2023-04-10T14:24:02.433Z,19.28
2023-04-10T14:26:29.328Z,19.17
2023-04-10T14:28:56.927Z,19.33
2023-04-10T14:31:23.934Z,18.91
2023-04-10T14:33:51.946Z,18.88
2023-04-10T14:36:19.563Z,18.90
2023-04-10T14:38:46.472Z,19.05
2023-04-10T14:41:13.614Z,18.89
2023-04-10T14:43:41.425Z,18.90
2023-04-10T14:46:08.983Z,18.52
2023-04-10T14:48:35.978Z,18.56
2023-04-10T14:51:04.614Z,18.47
2023-04-10T14:53:31.416Z,18.09
2023-04-10T14:55:58.271Z,18.38
2023-04-10T14:58:25.141Z,18.50
2023-04-10T15:00:52.288Z,18.49
2023-04-10T15:03:24.497Z,18.40
2023-04-10T15:06:00.288Z,18.31
2023-04-10T15:08:30.695Z,18.41
2023-04-10T15:10:57.702Z,18.05
2023-04-10T15:13:24.722Z,18.00
2023-04-10T15:15:51.673Z,18.20
2023-04-10T15:18:18.505Z,18.30
2023-04-10T15:20:45.733Z,18.41
2023-04-10T15:23:12.706Z,18.56
2023-04-10T15:25:39.962Z,18.87
2023-04-10T15:28:08.520Z,19.18
2023-04-10T15:30:35.609Z,18.96
2023-04-10T15:33:02.431Z,18.93
2023-04-10T15:35:30.771Z,19.02
2023-04-10T15:37:58.030Z,18.91
2023-04-10T15:40:25.018Z,18.66
2023-04-10T15:42:52.026Z,18.48
2023-04-10T15:45:18.951Z,18.36
2023-04-10T15:47:48.907Z,17.85
2023-04-10T15:50:15.912Z,17.60
2023-04-10T15:52:43.137Z,17.36
2023-04-10T15:55:10.314Z,17.11
2023-04-10T15:57:37.118Z,17.18
2023-04-10T16:00:04.891Z,17.26
2023-04-10T16:02:32.595Z,17.54
2023-04-10T16:04:59.972Z,17.49
2023-04-10T16:07:26.929Z,17.51
2023-04-10T16:09:55.460Z,17.64
2023-04-10T16:12:22.485Z,17.49
2023-04-10T16:14:49.445Z,17.34
2023-04-10T16:17:16.499Z,17.39
2023-04-10T16:19:43.419Z,17.52
2023-04-10T16:22:12.809Z,17.32
2023-04-10T16:24:39.722Z,17.37
2023-04-10T16:27:08.621Z,17.10
2023-04-10T16:29:35.791Z,16.97
2023-04-10T16:32:02.668Z,16.93
2023-04-10T16:34:29.740Z,16.85
2023-04-10T16:36:56.626Z,16.72
2023-04-10T16:39:23.513Z,16.61
2023-04-10T16:41:50.276Z,16.53
2023-04-10T16:44:17.288Z,16.55
2023-04-10T16:46:44.311Z,16.53
2023-04-10T16:49:11.201Z,16.48
2023-04-10T16:51:41.354Z,16.45
2023-04-10T16:54:08.216Z,16.40
2023-04-10T16:56:35.154Z,16.43
2023-04-10T16:59:02.048Z,16.22
2023-04-10T17:01:29.141Z,16.30
2023-04-10T17:03:56.670Z,16.28
2023-04-10T17:06:23.678Z,16.29
2023-04-10T17:08:50.490Z,16.22
2023-04-10T17:11:17.461Z,16.18
2023-04-10T17:13:44.258Z,16.10
2023-04-10T17:16:11.359Z,16.05
2023-04-10T17:18:38.360Z,16.01
2023-04-10T17:21:05.472Z,15.95
2023-04-10T17:23:32.767Z,15.94
2023-04-10T17:25:59.749Z,15.79
2023-04-10T17:28:26.750Z,15.73
2023-04-10T17:30:53.599Z,15.65
2023-04-10T17:33:21.976Z,15.66
2023-04-10T17:35:51.402Z,15.60
2023-04-10T17:38:18.901Z,15.60
2023-04-10T17:40:46.231Z,15.52
2023-04-10T17:43:13.312Z,15.40
2023-04-10T17:45:40.317Z,15.36
2023-04-10T17:48:08.034Z,15.38
2023-04-10T17:50:35.904Z,15.31
2023-04-10T17:53:03.031Z,15.30
2023-04-10T17:55:30.137Z,15.29
2023-04-10T17:57:59.915Z,15.22
2023-04-10T18:00:26.900Z,15.16
2023-04-10T18:03:00.104Z,15.16
2023-04-10T18:05:30.837Z,15.08
2023-04-10T18:07:57.707Z,15.09
2023-04-10T18:10:24.696Z,15.11
2023-04-10T18:12:51.905Z,15.10
2023-04-10T18:15:19.046Z,15.11
2023-04-10T18:17:46.133Z,15.07
2023-04-10T18:20:13.069Z,15.06
2023-04-10T18:22:40.105Z,15.04
2023-04-10T18:25:07.868Z,15.04
2023-04-10T18:27:36.153Z,14.88
2023-04-10T18:30:03.491Z,14.96
2023-04-10T18:32:30.610Z,14.97
2023-04-10T18:34:57.554Z,14.91
2023-04-10T18:37:24.451Z,14.88
2023-04-10T18:39:51.462Z,14.85
2023-04-10T18:42:18.423Z,14.87
2023-04-10T18:44:45.343Z,14.80
2023-04-10T18:47:12.555Z,14.88
2023-04-10T18:49:39.550Z,14.80
2023-04-10T18:52:07.839Z,14.84
2023-04-10T18:54:35.486Z,14.79
2023-04-10T18:57:02.559Z,14.77
2023-04-10T18:59:29.655Z,14.78
2023-04-10T19:01:56.419Z,14.82
2023-04-10T19:04:23.441Z,14.79
2023-04-10T19:06:51.607Z,14.78
2023-04-10T19:09:18.791Z,14.64
2023-04-10T19:11:45.871Z,14.48
2023-04-10T19:14:13.088Z,14.12
2023-04-10T19:16:39.997Z,13.73
2023-04-10T19:19:09.857Z,13.77
2023-04-10T19:21:36.755Z,13.77
2023-04-10T19:24:04.073Z,13.81
2023-04-10T19:26:33.874Z,14.00
2023-04-10T19:29:01.151Z,14.05
2023-04-10T19:31:29.896Z,14.05
2023-04-10T19:33:57.103Z,14.05
2023-04-10T19:36:27.759Z,14.10
2023-04-10T19:38:57.690Z,14.04
2023-04-10T19:41:24.818Z,13.99
2023-04-10T19:43:52.855Z,13.71
2023-04-10T19:46:21.758Z,13.77
2023-04-10T19:48:49.489Z,13.77
2023-04-10T19:51:16.519Z,13.76
2023-04-10T19:53:43.989Z,13.94
2023-04-10T19:56:11.040Z,13.94
2023-04-10T19:58:41.168Z,13.95
2023-04-10T20:01:12.595Z,13.93
2023-04-10T20:03:40.212Z,13.91
2023-04-10T20:06:08.352Z,13.83
2023-04-10T20:08:36.127Z,13.78
2023-04-10T20:11:07.004Z,13.74
2023-04-10T20:13:34.869Z,13.74
2023-04-10T20:16:02.144Z,13.82
2023-04-10T20:18:29.144Z,13.73
2023-04-10T20:20:56.004Z,13.80
2023-04-10T20:23:23.086Z,13.83
2023-04-10T20:25:50.181Z,13.80
2023-04-10T20:28:17.878Z,13.82
2023-04-10T20:30:44.646Z,13.86
2023-04-10T20:33:11.752Z,13.83
2023-04-10T20:35:38.888Z,13.80
2023-04-10T20:38:05.820Z,13.89
2023-04-10T20:40:32.789Z,13.83
2023-04-10T20:42:59.730Z,13.82
2023-04-10T20:45:26.736Z,13.81
2023-04-10T20:47:53.836Z,13.79
2023-04-10T20:50:21.012Z,13.82
2023-04-10T20:52:48.140Z,13.84
2023-04-10T20:55:17.924Z,13.69
2023-04-10T20:57:44.793Z,13.71
2023-04-10T21:00:12.105Z,13.75
2023-04-10T21:02:42.383Z,13.68
2023-04-10T21:05:09.733Z,13.30
2023-04-10T21:07:36.696Z,12.87
2023-04-10T21:10:04.796Z,12.81
2023-04-10T21:12:31.887Z,12.84
2023-04-10T21:14:58.898Z,12.54
2023-04-10T21:17:29.286Z,12.08
2023-04-10T21:19:56.115Z,11.88
2023-04-10T21:22:23.062Z,11.70
2023-04-10T21:24:50.335Z,11.80
2023-04-10T21:27:17.260Z,11.87
2023-04-10T21:29:44.570Z,11.81
2023-04-10T21:32:11.746Z,11.79
2023-04-10T21:34:39.044Z,11.82
2023-04-10T21:37:08.352Z,11.76
2023-04-10T21:39:35.556Z,11.61
2023-04-10T21:42:02.554Z,11.53
2023-04-10T21:44:29.331Z,11.48
2023-04-10T21:46:56.464Z,11.50
2023-04-10T21:49:23.424Z,11.38
2023-04-10T21:51:50.498Z,11.57
2023-04-10T21:54:17.494Z,11.51
2023-04-10T21:56:44.485Z,11.72
2023-04-10T21:59:11.778Z,11.72
2023-04-10T22:01:41.807Z,11.54
2023-04-10T22:04:09.155Z,11.24
2023-04-10T22:06:36.256Z,10.71
2023-04-10T22:09:03.258Z,10.68
2023-04-10T22:11:30.050Z,10.52
2023-04-10T22:13:58.262Z,10.42
2023-04-10T22:16:29.729Z,10.15
2023-04-10T22:18:56.980Z,9.99
2023-04-10T22:21:23.920Z,9.81
2023-04-10T22:23:50.958Z,9.58
2023-04-10T22:26:20.581Z,9.43
2023-04-10T22:28:47.560Z,9.36
2023-04-10T22:31:19.165Z,9.29
2023-04-10T22:33:46.946Z,9.22
2023-04-10T22:36:14.411Z,9.26
2023-04-10T22:38:41.486Z,9.19
2023-04-10T22:41:10.882Z,9.17
2023-04-10T22:43:37.712Z,9.02
2023-04-10T22:46:05.134Z,8.97
2023-04-10T22:48:32.769Z,8.93
2023-04-10T22:50:59.723Z,8.93
2023-04-10T22:53:27.595Z,8.89
2023-04-10T22:55:54.395Z,8.97
2023-04-10T22:58:21.254Z,8.98
2023-04-10T23:00:48.192Z,9.07
2023-04-10T23:03:15.503Z,9.13
2023-04-10T23:05:42.478Z,8.85
2023-04-10T23:08:09.268Z,8.83
2023-04-10T23:10:37.423Z,8.86
2023-04-10T23:13:04.311Z,8.71
2023-04-10T23:15:31.285Z,8.67
2023-04-10T23:17:58.285Z,8.59
2023-04-10T23:20:26.107Z,8.59
2023-04-10T23:22:55.475Z,8.62
2023-04-10T23:25:23.350Z,8.59
2023-04-10T23:27:50.054Z,8.58
2023-04-10T23:30:16.990Z,8.62
2023-04-10T23:32:43.844Z,8.60
2023-04-10T23:35:10.960Z,8.57
2023-04-10T23:37:38.139Z,8.64
2023-04-10T23:40:05.404Z,8.65
2023-04-10T23:42:32.327Z,8.62
2023-04-10T23:44:59.608Z,8.68
2023-04-10T23:47:26.553Z,8.65
2023-04-10T23:49:55.095Z,8.60
2023-04-10T23:52:21.911Z,8.62
2023-04-10T23:54:48.841Z,8.63
2023-04-10T23:57:16.040Z,8.63
2023-04-10T23:59:43.020Z,8.55
